Hlavní strana
METAR-TAF:

METAR-TAF

Letiště :

Altenstadt, Německo

zeměpisná šířka: 47-50N, zeměpisná délka: 010-52E, výška: 739 m

Aktuální stav počasí

Zpráva byla vytvořena před 41 minutami, v 14:20 UTC
Západoseverozápadní vítr 19 kt
Teplota 23°C
Vlhkost vzduchu 29%
Tlak 1021 hPa
Viditelnost 10 km a více

METAR: ETHA 141420Z AUTO 29019KT 9999 // ////// 23/04 Q1021 ///

Čas: 17:01 (15:01 UTC)


TAF: chybějící

Stav a předpovědi počasí z více než 4 000 letišť (zprávy METAR a TAF).

Červené a žluté tečky na mapě představují dostupné meteorologické stanice.

Když kurzor umístíte na tečku, zobrazí se název stanice.

Pak kliknutím zobrazíte stav a předpověď počasí.

Chcete-li změnit mapu, kliknutím na zelené tlačítko se znaménkem +mapu přiblížíte, kliknutím na zelené tlačítko se znaménkem – mapu oddálíte a kliknutím na zelené šipky přejdete na sousední mapy.


METAR-TAF: